This is the latest recevied weather packets stored in our database for station/object EA5AFP-10. If no packets are shown the sender has not sent any weather packets the latest 1 day(s).
| Time | Temp. | Humidity | Pressure | Rain* | Wind** | Luminosity | Snow |
|---|---|---|---|---|---|---|---|
| 1777970788 | 20.56° C | 5% | - | 0 mm | 0 m/s | - | - |
| 1777970697 | 20.56° C | 5% | - | 0 mm | 1.34 m/s, 292° | - | - |
| 1777970431 | 20.56° C | 5% | - | 0 mm | 0 m/s | - | - |
| 1777970228 | 20.56° C | 5% | - | 0 mm | 0.89 m/s, 337° | - | - |
| 1777970179 | 20.56° C | 5% | - | 0 mm | 0.89 m/s, 337° | - | - |
| 1777969931 | 20° C | 5% | - | 0 mm | 1.79 m/s, 337° | - | - |
| 1777969639 | 19.44° C | 5% | - | 0 mm | 0 m/s | - | - |
| 1777969369 | 19.44° C | 5% | - | 0 mm | 0 m/s | - | - |
| 1777969092 | 19.44° C | 5% | - | 0 mm | 0 m/s | - | - |
| 1777968820 | 19.44° C | 6% | - | 0 mm | 1.34 m/s, 315° | - | - |
| 1777968576 | 18.89° C | 5% | - | 0 mm | 0.89 m/s, 292° | - | - |
| 1777968328 | 18.89° C | 6% | - | 0 mm | 0.45 m/s, 337° | - | - |
| 1777968070 | 18.33° C | 6% | - | 0 mm | 0.89 m/s, 292° | - | - |
| 1777967817 | 18.33° C | 6% | - | 0 mm | 0.89 m/s, 315° | - | - |
| 1777967688 | 18.33° C | 6% | - | 0 mm | 1.34 m/s, 315° | - | - |
| 1777967587 | 18.33° C | 6% | - | 0 mm | 0.89 m/s, 315° | - | - |
| 1777967423 | 18.89° C | 6% | - | 0 mm | 0.89 m/s, 0° | - | - |
| 1777967138 | 18.33° C | 6% | - | 0 mm | 0.45 m/s, 22° | - | - |
| 1777967052 | 17.78° C | 6% | - | 0 mm | 0 m/s | - | - |
| 1777966868 | 18.33° C | 6% | - | 0 mm | 0.45 m/s, 22° | - | - |
| 1777966577 | 17.78° C | 6% | - | 0 mm | 1.79 m/s, 337° | - | - |
| 1777966288 | 17.78° C | 6% | - | 0 mm | 1.34 m/s, 315° | - | - |
| 1777966035 | 18.33° C | 6% | - | 0 mm | 0.45 m/s, 0° | - | - |
| 1777965850 | 17.78° C | 6% | - | 0 mm | 1.34 m/s, 315° | - | - |
| 1777965773 | 17.78° C | 6% | - | 0 mm | 1.34 m/s, 270° | - | - |
* Rain latest hour (hover to see other rain measurements)
** Current wind speed in m/s (hover to see current wind gust speed)